createdAt,value
2018-05-09T00:00:29.420Z,79.73
2018-05-09T00:01:29.608Z,79.83
2018-05-09T00:02:29.803Z,79.25
2018-05-09T00:03:29.988Z,79.16
2018-05-09T00:04:30.175Z,78.34
2018-05-09T00:05:30.365Z,77.86
2018-05-09T00:06:30.555Z,78.05
2018-05-09T00:07:30.745Z,78.14
2018-05-09T00:08:30.932Z,78.63
2018-05-09T00:09:31.120Z,78.05
2018-05-09T00:10:31.311Z,78.53
2018-05-09T00:11:31.498Z,78.49
2018-05-09T00:12:31.686Z,78.87
2018-05-09T00:13:31.874Z,79.16
2018-05-09T00:14:32.062Z,79.16
2018-05-09T00:15:32.254Z,78.87
2018-05-09T00:16:32.443Z,80.36
2018-05-09T00:17:32.633Z,81.13
2018-05-09T00:18:32.827Z,81.41
2018-05-09T00:19:33.009Z,82.18
2018-05-09T00:20:33.195Z,82.84
2018-05-09T00:21:33.385Z,83.23
2018-05-09T00:22:33.574Z,83.80
2018-05-09T00:23:33.761Z,83.70
2018-05-09T00:24:33.951Z,82.84
2018-05-09T00:25:34.137Z,83.09
2018-05-09T00:26:34.324Z,83.70
2018-05-09T00:27:34.514Z,83.57
2018-05-09T00:28:34.701Z,83.38
2018-05-09T00:29:34.891Z,83.57
2018-05-09T00:30:35.079Z,83.47
2018-05-09T00:31:35.266Z,83.70
2018-05-09T00:32:35.454Z,83.61
2018-05-09T00:33:35.642Z,83.61
2018-05-09T00:34:35.831Z,83.61
2018-05-09T00:35:36.021Z,83.90
2018-05-09T00:36:36.209Z,83.90
2018-05-09T00:37:36.396Z,83.80
2018-05-09T00:38:36.583Z,82.94
2018-05-09T00:39:36.771Z,83.13
2018-05-09T00:40:36.958Z,83.33
2018-05-09T00:41:37.176Z,82.94
2018-05-09T00:42:37.334Z,83.33
2018-05-09T00:43:37.524Z,83.23
2018-05-09T00:44:37.711Z,83.04
2018-05-09T00:45:37.899Z,83.13
2018-05-09T00:46:38.093Z,83.04
2018-05-09T00:47:38.275Z,83.13
2018-05-09T00:48:38.463Z,83.13
2018-05-09T00:49:38.650Z,83.04
2018-05-09T00:50:38.840Z,83.67
2018-05-09T00:51:39.027Z,83.13
2018-05-09T00:52:39.215Z,82.84
2018-05-09T00:53:39.410Z,83.04
2018-05-09T00:54:39.590Z,83.00
2018-05-09T00:55:39.775Z,83.67
2018-05-09T00:56:39.962Z,84.33
2018-05-09T00:57:40.151Z,84.33
2018-05-09T00:58:40.339Z,84.33
2018-05-09T00:59:40.526Z,83.57
2018-05-09T01:00:40.715Z,83.57
2018-05-09T01:01:40.903Z,84.43
2018-05-09T01:02:41.092Z,84.23
2018-05-09T01:03:41.278Z,84.91
2018-05-09T01:04:41.466Z,85.38
2018-05-09T01:05:41.662Z,84.81
2018-05-09T01:06:41.842Z,85.34
2018-05-09T01:07:42.031Z,85.72
2018-05-09T01:08:42.220Z,86.01
2018-05-09T01:09:42.414Z,86.30
2018-05-09T01:10:42.597Z,86.30
2018-05-09T01:11:42.783Z,86.20
2018-05-09T01:12:42.972Z,86.30
2018-05-09T01:13:43.160Z,85.91
2018-05-09T01:14:43.345Z,86.39
2018-05-09T01:15:43.534Z,85.91
2018-05-09T01:16:43.723Z,86.20
2018-05-09T01:17:43.911Z,86.01
2018-05-09T01:18:44.097Z,85.91
2018-05-09T01:19:44.286Z,86.01
2018-05-09T01:20:44.474Z,86.20
2018-05-09T01:21:44.663Z,86.01
2018-05-09T01:22:44.854Z,86.39
2018-05-09T01:23:45.040Z,86.68
2018-05-09T01:24:45.226Z,86.58
2018-05-09T01:25:45.415Z,86.68
2018-05-09T01:26:45.602Z,86.96
2018-05-09T01:27:45.789Z,86.20
2018-05-09T01:28:45.976Z,87.06
2018-05-09T01:29:46.169Z,87.92
2018-05-09T01:30:46.357Z,88.11
2018-05-09T01:31:46.544Z,88.40
2018-05-09T01:32:46.732Z,87.82
2018-05-09T01:33:46.919Z,88.30
2018-05-09T01:34:47.108Z,88.40
2018-05-09T01:35:47.295Z,88.68
2018-05-09T01:36:47.483Z,88.30
2018-05-09T01:37:47.672Z,88.11
2018-05-09T01:38:47.860Z,87.44
2018-05-09T01:39:48.048Z,87.87
2018-05-09T01:40:48.237Z,88.68
2018-05-09T01:41:48.426Z,88.59
2018-05-09T01:42:48.617Z,88.49
2018-05-09T01:43:48.799Z,88.68
2018-05-09T01:44:48.987Z,88.40
2018-05-09T01:45:49.175Z,87.63
2018-05-09T01:46:49.364Z,87.40
2018-05-09T01:47:49.553Z,87.21
2018-05-09T01:48:49.743Z,87.59
2018-05-09T01:49:49.932Z,87.49
2018-05-09T01:50:50.117Z,87.68
2018-05-09T01:51:50.309Z,87.11
2018-05-09T01:52:50.495Z,87.11
2018-05-09T01:53:50.682Z,87.40
2018-05-09T01:54:50.912Z,88.35
2018-05-09T01:55:51.057Z,88.64
2018-05-09T01:56:51.245Z,88.83
2018-05-09T01:57:51.432Z,88.35
2018-05-09T01:58:51.620Z,88.83
2018-05-09T01:59:51.808Z,89.21
2018-05-09T02:00:52.000Z,89.40
2018-05-09T02:01:52.185Z,89.69
2018-05-09T02:02:52.370Z,89.59
2018-05-09T02:03:52.560Z,89.40
2018-05-09T02:04:52.747Z,89.40
2018-05-09T02:05:52.936Z,89.59
2018-05-09T02:06:53.123Z,89.50
2018-05-09T02:07:53.310Z,89.88
2018-05-09T02:08:53.498Z,90.55
2018-05-09T02:09:53.686Z,89.78
2018-05-09T02:10:53.871Z,89.97
2018-05-09T02:11:54.059Z,89.69
2018-05-09T02:12:54.248Z,89.21
2018-05-09T02:13:54.435Z,89.59
2018-05-09T02:14:54.624Z,89.40
2018-05-09T02:15:54.810Z,89.40
2018-05-09T02:16:54.998Z,89.21
2018-05-09T02:17:55.186Z,89.59
2018-05-09T02:18:55.374Z,89.50
2018-05-09T02:19:55.562Z,89.21
2018-05-09T02:20:55.750Z,89.50
2018-05-09T02:21:55.939Z,89.40
2018-05-09T02:22:56.133Z,89.54
2018-05-09T02:23:56.331Z,90.36
2018-05-09T02:24:56.500Z,90.59
2018-05-09T02:25:56.686Z,90.64
2018-05-09T02:26:56.874Z,90.50
2018-05-09T02:27:57.063Z,90.98
2018-05-09T02:28:57.249Z,91.12
2018-05-09T02:29:57.438Z,90.93
2018-05-09T02:30:57.626Z,91.69
2018-05-09T02:31:57.817Z,91.83
2018-05-09T02:32:58.001Z,91.21
2018-05-09T02:33:58.187Z,91.27
2018-05-09T02:34:58.375Z,91.27
2018-05-09T02:35:58.621Z,91.36
2018-05-09T02:36:58.751Z,91.36
2018-05-09T02:37:58.939Z,91.55
2018-05-09T02:38:59.126Z,92.79
2018-05-09T02:39:59.318Z,92.50
2018-05-09T02:40:59.506Z,91.93
2018-05-09T02:41:59.689Z,91.74
2018-05-09T02:42:59.881Z,91.55
2018-05-09T02:44:00.066Z,91.83
2018-05-09T02:45:00.253Z,90.69
2018-05-09T02:46:00.441Z,91.55
2018-05-09T02:47:00.635Z,90.59
2018-05-09T02:48:00.817Z,91.64
2018-05-09T02:49:01.004Z,91.46
2018-05-09T02:50:01.346Z,91.93
2018-05-09T02:51:01.381Z,91.93
2018-05-09T02:52:01.569Z,92.22
2018-05-09T02:53:01.757Z,92.32
2018-05-09T02:54:01.944Z,92.12
2018-05-09T02:55:02.136Z,92.03
2018-05-09T02:56:02.320Z,91.64
2018-05-09T02:57:02.506Z,91.36
2018-05-09T02:58:02.694Z,91.64
2018-05-09T02:59:02.881Z,91.46
2018-05-09T03:00:03.071Z,91.27
2018-05-09T03:01:03.256Z,91.27
2018-05-09T03:02:03.447Z,91.64
2018-05-09T03:03:03.631Z,91.64
2018-05-09T03:04:03.818Z,91.64
2018-05-09T03:05:04.007Z,91.55
2018-05-09T03:06:04.193Z,91.27
2018-05-09T03:07:04.380Z,91.64
2018-05-09T03:08:04.568Z,91.74
2018-05-09T03:09:04.764Z,92.32
2018-05-09T03:10:04.946Z,92.22
2018-05-09T03:11:05.131Z,92.22
2018-05-09T03:12:05.319Z,92.69
2018-05-09T03:13:05.505Z,92.79
2018-05-09T03:14:05.694Z,92.69
2018-05-09T03:15:05.883Z,91.83
2018-05-09T03:16:06.071Z,91.83
2018-05-09T03:17:06.258Z,92.12
2018-05-09T03:18:06.445Z,91.83
2018-05-09T03:19:06.635Z,92.22
2018-05-09T03:20:06.822Z,92.03
2018-05-09T03:21:07.009Z,92.22
2018-05-09T03:22:07.197Z,91.60
2018-05-09T03:23:07.388Z,91.69
2018-05-09T03:24:07.574Z,91.27
2018-05-09T03:25:07.759Z,91.79
2018-05-09T03:26:07.945Z,91.98
2018-05-09T03:27:08.134Z,91.31
2018-05-09T03:28:08.321Z,91.31
2018-05-09T03:29:08.509Z,91.88
2018-05-09T03:30:08.697Z,92.08
2018-05-09T03:31:08.885Z,92.93
2018-05-09T03:32:09.069Z,93.46
2018-05-09T03:33:09.257Z,92.84
2018-05-09T03:34:09.445Z,93.65
2018-05-09T03:35:09.636Z,93.55
2018-05-09T03:36:09.821Z,93.93
2018-05-09T03:37:10.012Z,92.69
2018-05-09T03:38:10.196Z,92.12
2018-05-09T03:39:10.385Z,92.60
2018-05-09T03:40:10.572Z,93.17
2018-05-09T03:41:10.758Z,93.03
2018-05-09T03:42:10.946Z,93.51
2018-05-09T03:43:11.134Z,93.88
2018-05-09T03:44:11.319Z,93.88
2018-05-09T03:45:11.509Z,93.60
2018-05-09T03:46:11.698Z,94.27
2018-05-09T03:47:11.885Z,93.74
2018-05-09T03:48:12.072Z,93.65
2018-05-09T03:49:12.260Z,93.79
2018-05-09T03:50:12.449Z,93.12
2018-05-09T03:51:12.635Z,93.22
2018-05-09T03:52:12.822Z,92.65
2018-05-09T03:53:13.017Z,93.27
2018-05-09T03:54:13.196Z,93.22
2018-05-09T03:55:13.386Z,92.84
2018-05-09T03:56:13.574Z,92.84
2018-05-09T03:57:13.761Z,92.84
2018-05-09T03:58:13.949Z,93.22
2018-05-09T03:59:14.135Z,92.69
2018-05-09T04:00:14.324Z,93.08
2018-05-09T04:01:14.512Z,92.69
2018-05-09T04:02:14.708Z,91.93
2018-05-09T04:03:14.881Z,91.36
2018-05-09T04:04:15.070Z,91.46
2018-05-09T04:05:15.257Z,90.79
2018-05-09T04:06:15.443Z,90.50
2018-05-09T04:07:15.634Z,89.97
2018-05-09T04:08:15.825Z,89.78
2018-05-09T04:09:16.010Z,89.40
2018-05-09T04:10:16.197Z,89.31
2018-05-09T04:11:16.386Z,89.02
2018-05-09T04:12:16.574Z,88.26
2018-05-09T04:13:16.864Z,88.54
2018-05-09T04:14:16.951Z,87.87
2018-05-09T04:15:17.140Z,87.73
2018-05-09T04:16:17.327Z,87.73
2018-05-09T04:17:17.515Z,87.73
2018-05-09T04:18:17.703Z,86.68
2018-05-09T04:19:17.891Z,86.58
2018-05-09T04:20:18.078Z,85.91
2018-05-09T04:21:18.270Z,85.53
2018-05-09T04:22:18.456Z,85.53
2018-05-09T04:23:18.646Z,85.38
2018-05-09T04:24:18.837Z,84.05
2018-05-09T04:25:19.023Z,83.42
2018-05-09T04:26:19.216Z,82.08
2018-05-09T04:27:19.403Z,80.93
2018-05-09T04:28:19.591Z,80.88
2018-05-09T04:29:19.782Z,80.54
2018-05-09T04:30:19.971Z,79.10
2018-05-09T04:31:20.161Z,77.42
2018-05-09T04:32:20.352Z,77.61
2018-05-09T04:33:20.543Z,76.31
2018-05-09T04:34:20.735Z,74.77
2018-05-09T04:35:20.927Z,74.01
2018-05-09T04:36:21.213Z,74.97
2018-05-09T04:37:21.307Z,74.16
2018-05-09T04:38:21.498Z,75.12
2018-05-09T04:39:21.687Z,73.82
2018-05-09T04:40:21.878Z,72.90
2018-05-09T04:41:22.070Z,72.32
2018-05-09T04:42:22.261Z,71.78
2018-05-09T04:43:22.454Z,70.64
2018-05-09T04:44:22.646Z,69.20
2018-05-09T04:45:22.840Z,70.44
2018-05-09T04:46:23.033Z,70.83
2018-05-09T04:47:23.223Z,71.17
2018-05-09T04:48:23.415Z,71.94
2018-05-09T04:49:23.608Z,72.77
2018-05-09T04:50:23.800Z,72.96
2018-05-09T04:51:23.994Z,72.86
2018-05-09T04:52:24.187Z,72.99
2018-05-09T04:53:24.381Z,72.52
2018-05-09T04:54:24.575Z,71.56
2018-05-09T04:55:24.846Z,71.56
2018-05-09T04:56:24.961Z,71.94
2018-05-09T04:57:25.155Z,71.94
2018-05-09T04:58:25.350Z,70.57
2018-05-09T04:59:25.543Z,69.07
2018-05-09T05:00:25.736Z,67.76
2018-05-09T05:01:25.931Z,66.61
2018-05-09T05:02:26.128Z,66.86
2018-05-09T05:03:26.322Z,67.60
2018-05-09T05:04:26.525Z,70.41
2018-05-09T05:05:26.725Z,71.75
2018-05-09T05:06:26.909Z,72.32
2018-05-09T05:07:27.112Z,72.86
2018-05-09T05:08:27.303Z,73.28
2018-05-09T05:09:27.498Z,72.71
2018-05-09T05:10:27.694Z,71.84
2018-05-09T05:11:27.893Z,71.66
2018-05-09T05:12:28.089Z,71.69
2018-05-09T05:13:28.284Z,71.69
2018-05-09T05:14:28.483Z,70.92
2018-05-09T05:15:28.680Z,70.60
2018-05-09T05:16:28.876Z,71.08
2018-05-09T05:17:29.073Z,71.08
2018-05-09T05:18:29.272Z,71.75
2018-05-09T05:19:29.468Z,71.21
2018-05-09T05:20:29.666Z,70.44
2018-05-09T05:21:29.865Z,71.21
2018-05-09T05:22:30.062Z,71.50
2018-05-09T05:23:30.261Z,71.15
2018-05-09T05:24:30.463Z,70.83
2018-05-09T05:25:30.660Z,70.54
2018-05-09T05:26:30.855Z,71.11
2018-05-09T05:27:31.058Z,71.59
2018-05-09T05:28:31.255Z,71.82
2018-05-09T05:29:31.454Z,70.67
2018-05-09T05:30:31.648Z,69.81
2018-05-09T05:31:31.848Z,69.42
2018-05-09T05:32:32.049Z,69.87
2018-05-09T05:33:32.249Z,70.06
2018-05-09T05:34:32.447Z,70.25
2018-05-09T05:35:32.650Z,70.57
2018-05-09T05:36:32.849Z,69.39
2018-05-09T05:37:33.049Z,69.90
2018-05-09T05:38:33.251Z,70.06
2018-05-09T05:39:33.454Z,70.83
2018-05-09T05:40:33.655Z,70.57
2018-05-09T05:41:33.858Z,69.56
2018-05-09T05:42:34.058Z,68.12
2018-05-09T05:43:34.261Z,68.50
2018-05-09T05:44:34.460Z,68.88
2018-05-09T05:45:34.660Z,68.69
2018-05-09T05:46:34.862Z,69.26
2018-05-09T05:47:35.065Z,69.36
2018-05-09T05:48:35.262Z,69.26
2018-05-09T05:49:35.460Z,68.24
2018-05-09T05:50:35.662Z,67.19
2018-05-09T05:51:35.864Z,65.46
2018-05-09T05:52:36.064Z,67.19
2018-05-09T05:53:36.266Z,66.36
2018-05-09T05:54:36.468Z,65.56
2018-05-09T05:55:36.671Z,66.64
2018-05-09T05:56:36.872Z,65.53
2018-05-09T05:57:37.078Z,63.73
2018-05-09T05:58:37.355Z,64.76
2018-05-09T05:59:37.480Z,67.41
2018-05-09T06:00:37.683Z,68.85
2018-05-09T06:01:37.882Z,69.96
2018-05-09T06:02:38.084Z,70.64
2018-05-09T06:03:38.288Z,69.90
2018-05-09T06:04:38.492Z,69.84
2018-05-09T06:05:38.695Z,69.52
2018-05-09T06:06:38.898Z,68.50
2018-05-09T06:07:39.102Z,69.29
2018-05-09T06:08:39.303Z,70.54
2018-05-09T06:09:39.510Z,71.11
2018-05-09T06:10:39.710Z,70.64
2018-05-09T06:11:39.915Z,70.54
2018-05-09T06:12:40.120Z,70.35
2018-05-09T06:13:40.321Z,72.27
2018-05-09T06:14:40.526Z,71.02
2018-05-09T06:15:40.728Z,71.25
2018-05-09T06:16:40.935Z,70.70
2018-05-09T06:17:41.134Z,68.50
2018-05-09T06:18:41.334Z,68.30
2018-05-09T06:19:41.540Z,70.42
2018-05-09T06:20:41.742Z,70.23
2018-05-09T06:21:41.946Z,68.21
2018-05-09T06:22:42.147Z,67.54
2018-05-09T06:23:42.354Z,68.30
2018-05-09T06:24:42.558Z,68.50
2018-05-09T06:25:42.764Z,68.15
2018-05-09T06:26:42.966Z,66.46
2018-05-09T06:27:43.169Z,66.61
2018-05-09T06:28:43.373Z,68.02
2018-05-09T06:29:43.575Z,67.47
2018-05-09T06:30:43.778Z,67.22
2018-05-09T06:31:43.985Z,66.71
2018-05-09T06:32:44.183Z,66.26
2018-05-09T06:33:44.389Z,66.42
2018-05-09T06:34:44.588Z,67.50
2018-05-09T06:35:44.788Z,68.27
2018-05-09T06:36:44.993Z,68.75
2018-05-09T06:37:45.250Z,69.23
2018-05-09T06:38:45.395Z,70.09
2018-05-09T06:39:45.597Z,68.59
2018-05-09T06:40:45.800Z,67.22
2018-05-09T06:41:46.153Z,64.76
2018-05-09T06:42:46.197Z,62.84
2018-05-09T06:43:46.480Z,64.05
2018-05-09T06:44:46.603Z,64.98
2018-05-09T06:45:46.803Z,65.97
2018-05-09T06:46:47.002Z,64.92
2018-05-09T06:47:47.202Z,64.53
2018-05-09T06:48:47.406Z,64.92
2018-05-09T06:49:47.608Z,63.96
2018-05-09T06:50:47.818Z,65.30
2018-05-09T06:51:48.018Z,64.79
2018-05-09T06:52:48.218Z,63.35
2018-05-09T06:53:48.421Z,64.47
2018-05-09T06:54:48.622Z,63.22
2018-05-09T06:55:48.823Z,63.32
2018-05-09T06:56:49.026Z,62.26
2018-05-09T06:57:49.232Z,63.02
2018-05-09T06:58:49.434Z,63.15
2018-05-09T06:59:49.643Z,61.43
2018-05-09T07:00:49.840Z,62.71
2018-05-09T07:01:50.047Z,61.43
2018-05-09T07:02:50.250Z,62.19
2018-05-09T07:03:50.456Z,61.71
2018-05-09T07:04:50.660Z,63.02
2018-05-09T07:05:50.862Z,63.22
2018-05-09T07:06:51.064Z,62.90
2018-05-09T07:07:51.267Z,65.20
2018-05-09T07:08:51.470Z,64.92
2018-05-09T07:09:51.680Z,64.09
2018-05-09T07:10:51.875Z,64.28
2018-05-09T07:11:52.078Z,63.64
2018-05-09T07:12:52.282Z,63.70
2018-05-09T07:13:52.482Z,64.09
2018-05-09T07:14:52.684Z,64.43
2018-05-09T07:15:52.884Z,65.49
2018-05-09T07:16:53.084Z,66.46
2018-05-09T07:17:53.285Z,65.08
2018-05-09T07:18:53.486Z,65.75
2018-05-09T07:19:53.685Z,66.16
2018-05-09T07:20:53.885Z,65.65
2018-05-09T07:21:54.088Z,66.23
2018-05-09T07:22:54.284Z,66.26
2018-05-09T07:23:54.559Z,65.88
2018-05-09T07:24:54.763Z,66.84
2018-05-09T07:25:54.879Z,65.23
2018-05-09T07:26:55.081Z,64.12
2018-05-09T07:27:55.286Z,63.57
2018-05-09T07:28:55.483Z,63.02
2018-05-09T07:29:55.677Z,62.09
2018-05-09T07:30:55.876Z,60.61
2018-05-09T07:31:56.075Z,57.89
2018-05-09T07:32:56.274Z,59.01
2018-05-09T07:33:56.468Z,58.22
2018-05-09T07:34:56.670Z,59.17
2018-05-09T07:35:56.869Z,59.92
2018-05-09T07:36:57.065Z,60.30
2018-05-09T07:37:57.269Z,60.49
2018-05-09T07:38:57.467Z,59.94
2018-05-09T07:39:57.668Z,59.37
2018-05-09T07:40:57.867Z,59.27
2018-05-09T07:41:58.068Z,59.20
2018-05-09T07:42:58.269Z,58.75
2018-05-09T07:43:58.467Z,58.17
2018-05-09T07:44:58.669Z,57.40
2018-05-09T07:45:58.876Z,58.37
2018-05-09T07:46:59.074Z,58.82
2018-05-09T07:47:59.322Z,58.82
2018-05-09T07:48:59.472Z,59.40
2018-05-09T07:49:59.674Z,59.20
2018-05-09T07:50:59.878Z,58.85
2018-05-09T07:52:00.077Z,57.98
2018-05-09T07:53:00.274Z,57.69
2018-05-09T07:54:00.475Z,58.37
2018-05-09T07:55:00.675Z,58.59
2018-05-09T07:56:00.879Z,58.01
2018-05-09T07:57:01.081Z,58.30
2018-05-09T07:58:01.282Z,57.53
2018-05-09T07:59:01.485Z,57.24
2018-05-09T08:00:01.687Z,58.11
2018-05-09T08:01:01.888Z,58.59
2018-05-09T08:02:02.091Z,56.85
2018-05-09T08:03:02.299Z,58.49
2018-05-09T08:04:02.497Z,57.37
2018-05-09T08:05:02.697Z,56.69
2018-05-09T08:06:02.920Z,56.85
2018-05-09T08:07:03.190Z,57.43
2018-05-09T08:08:03.313Z,57.07
2018-05-09T08:09:03.515Z,56.40
2018-05-09T08:10:03.717Z,56.98
2018-05-09T08:11:03.917Z,57.37
2018-05-09T08:12:04.119Z,56.76
2018-05-09T08:13:04.321Z,57.75
2018-05-09T08:14:04.523Z,56.29
2018-05-09T08:15:04.728Z,54.46
2018-05-09T08:16:04.929Z,54.46
2018-05-09T08:17:05.135Z,53.49
2018-05-09T08:18:05.338Z,54.62
2018-05-09T08:19:05.539Z,55.59
2018-05-09T08:20:05.740Z,56.52
2018-05-09T08:21:05.941Z,56.43
2018-05-09T08:22:06.142Z,56.88
2018-05-09T08:23:06.346Z,57.39
2018-05-09T08:24:06.549Z,56.72
2018-05-09T08:25:06.753Z,56.04
2018-05-09T08:26:06.957Z,56.72
2018-05-09T08:27:07.158Z,56.72
2018-05-09T08:28:07.363Z,55.90
2018-05-09T08:29:07.563Z,55.42
2018-05-09T08:30:07.763Z,54.36
2018-05-09T08:31:07.976Z,54.75
2018-05-09T08:32:08.177Z,53.03
2018-05-09T08:33:08.382Z,52.29
2018-05-09T08:34:08.578Z,53.57
2018-05-09T08:35:08.782Z,53.25
2018-05-09T08:36:09.007Z,51.25
2018-05-09T08:37:09.193Z,50.92
2018-05-09T08:38:09.397Z,50.86
2018-05-09T08:39:09.600Z,52.80
2018-05-09T08:40:09.802Z,52.41
2018-05-09T08:41:10.006Z,51.06
2018-05-09T08:42:10.208Z,49.46
2018-05-09T08:43:10.508Z,47.14
2018-05-09T08:44:10.612Z,48.27
2018-05-09T08:45:10.817Z,50.12
2018-05-09T08:46:11.025Z,48.01
2018-05-09T08:47:11.223Z,47.24
2018-05-09T08:48:11.430Z,48.49
2018-05-09T08:49:11.690Z,48.08
2018-05-09T08:50:11.841Z,50.67
2018-05-09T08:51:12.043Z,49.90
2018-05-09T08:52:12.247Z,48.16
2018-05-09T08:53:12.449Z,49.22
2018-05-09T08:54:12.651Z,48.93
2018-05-09T08:55:12.851Z,48.59
2018-05-09T08:56:13.057Z,48.13
2018-05-09T08:57:13.261Z,46.82
2018-05-09T08:58:13.467Z,44.23
2018-05-09T08:59:13.673Z,43.13
2018-05-09T09:00:13.873Z,44.76
2018-05-09T09:01:14.079Z,47.62
2018-05-09T09:02:14.279Z,49.05
2018-05-09T09:03:14.481Z,48.35
2018-05-09T09:04:14.744Z,48.42
2018-05-09T09:05:14.891Z,47.77
2018-05-09T09:06:15.091Z,46.87
2018-05-09T09:07:15.293Z,46.56
2018-05-09T09:08:15.497Z,47.02
2018-05-09T09:09:15.698Z,48.66
2018-05-09T09:10:15.903Z,49.90
2018-05-09T09:11:16.107Z,49.70
2018-05-09T09:12:16.308Z,48.44
2018-05-09T09:13:16.510Z,48.88
2018-05-09T09:14:16.715Z,49.97
2018-05-09T09:15:16.993Z,49.10
2018-05-09T09:16:17.117Z,47.21
2018-05-09T09:17:17.320Z,44.89
2018-05-09T09:18:17.522Z,45.76
2018-05-09T09:19:17.725Z,44.76
2018-05-09T09:20:17.931Z,43.00
2018-05-09T09:21:18.131Z,41.95
2018-05-09T09:22:18.332Z,41.49
2018-05-09T09:23:18.537Z,41.41
2018-05-09T09:24:18.735Z,40.34
2018-05-09T09:25:18.942Z,40.61
2018-05-09T09:26:19.142Z,41.00
2018-05-09T09:27:19.345Z,41.39
2018-05-09T09:28:19.545Z,41.70
2018-05-09T09:29:19.781Z,40.61
2018-05-09T09:30:19.950Z,42.96
2018-05-09T09:31:20.153Z,41.70
2018-05-09T09:32:20.353Z,41.47
2018-05-09T09:33:20.558Z,39.78
2018-05-09T09:34:20.756Z,43.19
2018-05-09T09:35:20.958Z,42.66
2018-05-09T09:36:21.159Z,43.23
2018-05-09T09:37:21.362Z,42.93
2018-05-09T09:38:21.562Z,42.83
2018-05-09T09:39:21.761Z,42.47
2018-05-09T09:40:21.963Z,43.29
2018-05-09T09:41:22.177Z,43.09
2018-05-09T09:42:22.365Z,42.86
2018-05-09T09:43:22.565Z,42.32
2018-05-09T09:44:22.765Z,41.25
2018-05-09T09:45:23.708Z,43.17
2018-05-09T09:46:23.165Z,43.87
2018-05-09T09:47:23.369Z,43.09
2018-05-09T09:48:23.563Z,44.06
2018-05-09T09:49:23.767Z,43.07
2018-05-09T09:50:23.963Z,43.07
2018-05-09T09:51:24.162Z,44.50
2018-05-09T09:52:24.361Z,43.51
2018-05-09T09:53:24.560Z,45.08
2018-05-09T09:54:24.762Z,45.32
2018-05-09T09:55:24.960Z,44.37
2018-05-09T09:56:25.160Z,41.56
2018-05-09T09:57:25.359Z,43.04
2018-05-09T09:58:25.556Z,42.86
2018-05-09T09:59:25.755Z,39.98
2018-05-09T10:00:25.955Z,41.49
2018-05-09T10:01:26.169Z,42.36
2018-05-09T10:02:26.353Z,43.02
2018-05-09T10:03:26.560Z,43.00
2018-05-09T10:04:26.755Z,42.82
2018-05-09T10:05:26.948Z,41.66
2018-05-09T10:06:27.147Z,41.95
2018-05-09T10:07:27.352Z,41.39
2018-05-09T10:08:27.546Z,40.61
2018-05-09T10:09:27.746Z,41.68
2018-05-09T10:10:27.941Z,40.79
2018-05-09T10:11:28.140Z,41.39
2018-05-09T10:12:28.339Z,42.29
2018-05-09T10:13:28.538Z,42.09
2018-05-09T10:14:28.742Z,41.47
2018-05-09T10:15:28.935Z,41.74
2018-05-09T10:16:29.132Z,43.00
2018-05-09T10:17:29.331Z,43.55
2018-05-09T10:18:29.528Z,44.91
2018-05-09T10:19:29.727Z,43.34
2018-05-09T10:20:29.925Z,44.53
2018-05-09T10:21:30.122Z,44.06
2018-05-09T10:22:30.322Z,43.09
2018-05-09T10:23:30.520Z,43.34
2018-05-09T10:24:30.715Z,45.59
2018-05-09T10:25:30.915Z,45.10
2018-05-09T10:26:31.110Z,44.23
2018-05-09T10:27:31.308Z,44.12
2018-05-09T10:28:31.505Z,44.50
2018-05-09T10:29:31.704Z,44.23
2018-05-09T10:30:31.898Z,45.40
2018-05-09T10:31:32.208Z,45.71
2018-05-09T10:32:32.292Z,43.82
2018-05-09T10:33:32.490Z,45.90
2018-05-09T10:34:32.687Z,43.12
2018-05-09T10:35:32.884Z,41.42
2018-05-09T10:36:33.079Z,42.59
2018-05-09T10:37:33.278Z,43.85
2018-05-09T10:38:33.473Z,44.04
2018-05-09T10:39:33.671Z,44.64
2018-05-09T10:40:33.867Z,44.16
2018-05-09T10:41:34.063Z,43.38
2018-05-09T10:42:34.264Z,44.43
2018-05-09T10:43:34.552Z,44.33
2018-05-09T10:44:34.654Z,45.22
2018-05-09T10:45:34.851Z,44.53
2018-05-09T10:46:35.044Z,44.54
2018-05-09T10:47:35.321Z,44.54
2018-05-09T10:48:35.437Z,43.65
2018-05-09T10:49:35.633Z,44.62
2018-05-09T10:50:35.831Z,45.47
2018-05-09T10:51:36.026Z,45.57
2018-05-09T10:52:36.225Z,44.98
2018-05-09T10:53:36.420Z,46.46
2018-05-09T10:54:36.616Z,45.10
2018-05-09T10:55:36.813Z,43.37
2018-05-09T10:56:37.009Z,43.07
2018-05-09T10:57:37.205Z,43.09
2018-05-09T10:58:37.401Z,42.90
2018-05-09T10:59:37.599Z,43.50
2018-05-09T11:00:37.793Z,43.02
2018-05-09T11:01:37.992Z,43.12
2018-05-09T11:02:38.187Z,42.92
2018-05-09T11:03:38.433Z,42.14
2018-05-09T11:04:38.581Z,42.34
2018-05-09T11:05:38.776Z,42.44
2018-05-09T11:06:38.973Z,42.82
2018-05-09T11:07:39.167Z,43.02
2018-05-09T11:08:39.374Z,44.47
2018-05-09T11:09:39.562Z,43.99
2018-05-09T11:10:39.760Z,44.54
2018-05-09T11:11:39.957Z,43.87
2018-05-09T11:12:40.152Z,44.54
2018-05-09T11:13:40.351Z,44.91
2018-05-09T11:14:40.544Z,45.64
2018-05-09T11:15:40.741Z,43.77
2018-05-09T11:16:40.935Z,45.20
2018-05-09T11:17:41.137Z,44.31
2018-05-09T11:18:41.328Z,44.33
2018-05-09T11:19:41.526Z,43.46
2018-05-09T11:20:41.721Z,44.62
2018-05-09T11:21:41.915Z,44.53
2018-05-09T11:22:42.112Z,44.89
2018-05-09T11:23:42.308Z,44.87
2018-05-09T11:24:42.593Z,45.08
2018-05-09T11:25:42.700Z,44.70
2018-05-09T11:26:42.898Z,46.73
2018-05-09T11:27:43.093Z,45.71
2018-05-09T11:28:43.287Z,44.74
2018-05-09T11:29:43.482Z,45.71
2018-05-09T11:30:43.680Z,44.72
2018-05-09T11:31:43.874Z,43.95
2018-05-09T11:32:44.073Z,44.70
2018-05-09T11:33:44.270Z,44.60
2018-05-09T11:34:44.545Z,45.28
2018-05-09T11:35:44.664Z,45.18
2018-05-09T11:36:44.859Z,44.70
2018-05-09T11:37:45.091Z,45.08
2018-05-09T11:38:45.254Z,44.98
2018-05-09T11:39:45.446Z,44.72
2018-05-09T11:40:45.641Z,45.20
2018-05-09T11:41:45.837Z,44.50
2018-05-09T11:42:46.109Z,44.89
2018-05-09T11:43:46.228Z,43.85
2018-05-09T11:44:46.480Z,43.29
2018-05-09T11:45:46.619Z,44.76
2018-05-09T11:46:46.815Z,44.35
2018-05-09T11:47:47.011Z,47.19
2018-05-09T11:48:47.206Z,44.01
2018-05-09T11:49:47.403Z,42.29
2018-05-09T11:50:47.601Z,42.11
2018-05-09T11:51:47.795Z,40.66
2018-05-09T11:52:47.992Z,39.90
2018-05-09T11:53:48.185Z,39.82
2018-05-09T11:54:48.384Z,38.95
2018-05-09T11:55:48.581Z,39.43
2018-05-09T11:56:48.779Z,39.92
2018-05-09T11:57:48.975Z,39.74
2018-05-09T11:58:49.169Z,41.45
2018-05-09T11:59:49.367Z,43.65
2018-05-09T12:00:49.563Z,44.31
2018-05-09T12:01:49.759Z,44.40
2018-05-09T12:02:49.957Z,44.70
2018-05-09T12:03:50.152Z,43.85
2018-05-09T12:04:50.350Z,46.56
2018-05-09T12:05:50.546Z,46.48
2018-05-09T12:06:50.741Z,46.51
2018-05-09T12:07:50.939Z,44.84
2018-05-09T12:08:51.136Z,45.10
2018-05-09T12:09:51.333Z,46.58
2018-05-09T12:10:51.581Z,44.84
2018-05-09T12:11:51.725Z,44.98
2018-05-09T12:12:51.921Z,46.53
2018-05-09T12:13:52.122Z,45.86
2018-05-09T12:14:52.313Z,46.36
2018-05-09T12:15:52.511Z,47.06
2018-05-09T12:16:52.705Z,45.15
2018-05-09T12:17:52.903Z,43.41
2018-05-09T12:18:53.096Z,42.36
2018-05-09T12:19:53.293Z,41.41
2018-05-09T12:20:53.496Z,41.14
2018-05-09T12:21:53.687Z,41.99
2018-05-09T12:22:53.884Z,42.65
2018-05-09T12:23:54.079Z,43.99
2018-05-09T12:24:54.274Z,44.27
2018-05-09T12:25:54.470Z,44.88
2018-05-09T12:26:54.664Z,43.99
2018-05-09T12:27:54.863Z,45.37
2018-05-09T12:28:55.061Z,45.47
2018-05-09T12:29:55.256Z,44.78
2018-05-09T12:30:55.451Z,43.84
2018-05-09T12:31:55.668Z,41.58
2018-05-09T12:32:55.841Z,41.20
2018-05-09T12:33:56.040Z,41.78
2018-05-09T12:34:56.236Z,42.86
2018-05-09T12:35:56.432Z,41.33
2018-05-09T12:36:56.629Z,38.54
2018-05-09T12:37:56.829Z,37.68
2018-05-09T12:38:57.021Z,36.91
2018-05-09T12:39:57.218Z,37.60
2018-05-09T12:40:57.417Z,37.51
2018-05-09T12:41:57.612Z,37.22
2018-05-09T12:42:57.811Z,36.83
2018-05-09T12:43:58.005Z,36.63
2018-05-09T12:44:58.201Z,37.60
2018-05-09T12:45:58.399Z,37.24
2018-05-09T12:46:58.599Z,37.54
2018-05-09T12:47:58.793Z,35.39
2018-05-09T12:48:58.990Z,37.22
2018-05-09T12:49:59.185Z,36.85
2018-05-09T12:50:59.422Z,38.56
2018-05-09T12:51:59.576Z,39.01
2018-05-09T12:52:59.779Z,40.64
2018-05-09T12:53:59.969Z,39.55
2018-05-09T12:55:00.167Z,40.42